createdAt,value
2023-01-17T00:01:52.791Z,12.37
2023-01-17T00:04:13.558Z,13.15
2023-01-17T00:06:34.119Z,13.18
2023-01-17T00:08:54.690Z,13.13
2023-01-17T00:10:58.335Z,13.27
2023-01-17T00:13:00.995Z,12.57
2023-01-17T00:15:03.561Z,12.00
2023-01-17T00:17:05.299Z,12.40
2023-01-17T00:19:26.156Z,11.07
2023-01-17T00:21:46.789Z,11.40
2023-01-17T00:24:07.755Z,11.32
2023-01-17T00:26:10.987Z,12.30
2023-01-17T00:28:13.138Z,13.00
2023-01-17T00:30:17.796Z,12.60
2023-01-17T00:32:20.015Z,11.73
2023-01-17T00:34:21.665Z,12.10
2023-01-17T00:36:23.757Z,12.82
2023-01-17T00:38:26.663Z,13.32
2023-01-17T00:40:28.450Z,13.43
2023-01-17T00:42:30.403Z,13.43
2023-01-17T00:44:50.515Z,13.63
2023-01-17T00:47:11.093Z,14.32
2023-01-17T00:49:31.439Z,13.73
2023-01-17T00:51:52.603Z,15.10
2023-01-17T00:54:12.941Z,16.05
2023-01-17T00:56:33.515Z,15.88
2023-01-17T00:58:53.987Z,16.50
2023-01-17T01:01:14.855Z,16.40
2023-01-17T01:03:35.468Z,17.77
2023-01-17T01:05:56.863Z,17.17
2023-01-17T01:08:17.391Z,19.42
2023-01-17T01:10:37.889Z,19.50
2023-01-17T01:12:58.392Z,19.77
2023-01-17T01:15:18.979Z,19.33
2023-01-17T01:17:39.138Z,19.75
2023-01-17T01:20:00.030Z,21.15
2023-01-17T01:22:20.273Z,19.98
2023-01-17T01:24:40.764Z,19.92
2023-01-17T01:27:01.263Z,19.23
2023-01-17T01:29:21.928Z,19.80
2023-01-17T01:31:42.228Z,20.00
2023-01-17T01:33:44.331Z,20.77
2023-01-17T01:35:53.703Z,20.58
2023-01-17T01:37:55.580Z,19.00
2023-01-17T01:39:57.683Z,18.60
2023-01-17T01:41:59.419Z,19.25
2023-01-17T01:44:01.477Z,18.30
2023-01-17T01:46:03.591Z,18.88
2023-01-17T01:48:20.195Z,19.38
2023-01-17T01:50:22.524Z,18.55
2023-01-17T01:52:25.783Z,17.70
2023-01-17T01:54:30.664Z,19.02
2023-01-17T01:56:32.876Z,18.65
2023-01-17T01:58:34.896Z,17.63
2023-01-17T02:00:38.360Z,17.27
2023-01-17T02:02:40.790Z,17.63
2023-01-17T02:04:43.964Z,17.73
2023-01-17T02:06:51.107Z,17.75
2023-01-17T02:08:53.450Z,17.23
2023-01-17T02:10:56.120Z,17.87
2023-01-17T02:15:00.118Z,15.90
2023-01-17T02:17:21.246Z,16.45
2023-01-17T02:19:29.229Z,17.10
2023-01-17T02:21:41.775Z,16.88
2023-01-17T02:23:55.538Z,15.30
2023-01-17T02:26:10.289Z,15.63
2023-01-17T02:28:24.418Z,16.00
2023-01-17T02:30:26.105Z,15.70
2023-01-17T02:32:38.195Z,17.02
2023-01-17T02:34:44.520Z,15.95
2023-01-17T02:36:49.103Z,14.85
2023-01-17T02:39:12.574Z,16.70
2023-01-17T02:41:21.059Z,14.68
2023-01-17T02:43:23.903Z,16.65
2023-01-17T02:45:25.729Z,16.17
2023-01-17T02:47:29.157Z,16.40
2023-01-17T02:49:31.902Z,15.95
2023-01-17T02:53:51.220Z,14.50
2023-01-17T02:56:16.252Z,16.50
2023-01-17T02:58:21.483Z,15.93
2023-01-17T03:00:38.067Z,15.65
2023-01-17T03:02:52.422Z,16.50
2023-01-17T03:04:58.657Z,16.83
2023-01-17T03:07:02.934Z,17.55
2023-01-17T03:09:04.739Z,16.13
2023-01-17T03:11:08.024Z,15.32
2023-01-17T03:13:09.760Z,15.32
2023-01-17T03:15:13.123Z,15.38
2023-01-17T03:17:14.842Z,16.80
2023-01-17T03:19:16.985Z,16.43
2023-01-17T03:21:18.718Z,16.00
2023-01-17T03:23:20.996Z,15.30
2023-01-17T03:25:23.852Z,15.02
2023-01-17T03:27:25.975Z,16.00
2023-01-17T03:29:27.744Z,15.73
2023-01-17T03:31:29.896Z,15.70
2023-01-17T03:33:32.588Z,15.23
2023-01-17T03:37:36.524Z,15.23
2023-01-17T03:39:38.688Z,15.38
2023-01-17T03:41:40.499Z,14.63
2023-01-17T03:43:42.608Z,14.75
2023-01-17T03:45:44.681Z,14.55
2023-01-17T03:47:47.018Z,15.35
2023-01-17T03:49:48.918Z,14.95
2023-01-17T03:51:51.037Z,14.18
2023-01-17T03:53:52.861Z,14.75
2023-01-17T03:55:54.898Z,15.70
2023-01-17T03:57:57.017Z,15.02
2023-01-17T03:59:59.088Z,14.43
2023-01-17T04:02:01.108Z,15.45
2023-01-17T04:04:03.270Z,14.32
2023-01-17T04:06:05.269Z,14.57
2023-01-17T04:08:07.438Z,15.10
2023-01-17T04:10:09.465Z,14.40
2023-01-17T04:12:11.565Z,14.15
2023-01-17T04:14:13.286Z,14.77
2023-01-17T04:16:16.980Z,14.73
2023-01-17T04:18:20.245Z,13.43
2023-01-17T04:20:48.557Z,14.73
2023-01-17T04:22:50.227Z,15.27
2023-01-17T04:24:52.302Z,16.60
2023-01-17T04:26:54.015Z,17.95
2023-01-17T04:28:56.117Z,15.40
2023-01-17T04:30:59.216Z,17.80
2023-01-17T04:33:01.355Z,14.70
2023-01-17T04:35:04.809Z,14.85
2023-01-17T04:37:07.100Z,13.65
2023-01-17T04:39:08.915Z,14.13
2023-01-17T04:41:11.193Z,15.57
2023-01-17T04:43:12.885Z,14.02
2023-01-17T04:45:15.587Z,14.77
2023-01-17T04:47:17.315Z,13.77
2023-01-17T04:49:19.524Z,14.55
2023-01-17T04:51:21.197Z,14.52
2023-01-17T04:53:23.298Z,14.80
2023-01-17T04:55:25.060Z,13.48
2023-01-17T04:57:27.205Z,15.38
2023-01-17T04:59:28.945Z,15.10
2023-01-17T05:01:31.174Z,13.60
2023-01-17T05:03:33.342Z,13.18
2023-01-17T05:05:35.410Z,14.63
2023-01-17T05:07:37.176Z,13.98
2023-01-17T05:09:39.234Z,13.53
2023-01-17T05:11:40.958Z,14.65
2023-01-17T05:13:43.052Z,13.03
2023-01-17T05:15:45.002Z,13.48
2023-01-17T05:17:47.046Z,15.38
2023-01-17T05:19:48.765Z,14.27
2023-01-17T05:21:50.828Z,12.83
2023-01-17T05:23:52.560Z,14.02
2023-01-17T05:25:54.697Z,13.97
2023-01-17T05:27:56.751Z,13.05
2023-01-17T05:29:58.772Z,13.98
2023-01-17T05:32:00.479Z,13.35
2023-01-17T05:34:02.939Z,13.07
2023-01-17T05:36:06.085Z,14.40
2023-01-17T05:38:12.267Z,12.93
2023-01-17T05:40:14.009Z,13.52
2023-01-17T05:42:16.067Z,13.23
2023-01-17T05:44:17.763Z,14.05
2023-01-17T05:46:19.919Z,14.37
2023-01-17T05:48:21.716Z,13.02
2023-01-17T05:50:28.631Z,13.38
2023-01-17T05:52:30.379Z,13.73
2023-01-17T05:54:32.433Z,14.00
2023-01-17T05:56:34.277Z,13.00
2023-01-17T05:58:36.531Z,13.93
2023-01-17T06:00:38.485Z,13.83
2023-01-17T06:02:40.549Z,14.15
2023-01-17T06:04:42.776Z,14.55
2023-01-17T06:06:44.825Z,13.90
2023-01-17T06:08:46.574Z,13.93
2023-01-17T06:10:48.640Z,14.80
2023-01-17T06:12:50.896Z,15.93
2023-01-17T06:14:52.632Z,15.50
2023-01-17T06:16:54.822Z,16.58
2023-01-17T06:18:56.468Z,18.00
2023-01-17T06:20:58.567Z,14.27
2023-01-17T06:23:01.530Z,15.05
2023-01-17T06:27:05.316Z,14.50
2023-01-17T06:29:07.077Z,13.88
2023-01-17T06:31:09.539Z,14.30
2023-01-17T06:33:11.884Z,15.45
2023-01-17T06:35:14.082Z,12.90
2023-01-17T06:37:15.768Z,12.82
2023-01-17T06:39:17.774Z,17.07
2023-01-17T06:41:19.458Z,15.60
2023-01-17T06:43:21.492Z,17.03
2023-01-17T06:45:23.182Z,15.68
2023-01-17T06:47:25.289Z,16.43
2023-01-17T06:49:27.111Z,14.23
2023-01-17T06:51:29.360Z,18.73
2023-01-17T06:53:31.065Z,15.45
2023-01-17T06:55:34.022Z,13.57
2023-01-17T06:57:36.001Z,15.63
2023-01-17T06:59:37.851Z,15.67
2023-01-17T07:01:40.321Z,15.93
2023-01-17T07:03:42.074Z,18.92
2023-01-17T07:05:44.168Z,17.37
2023-01-17T07:07:46.012Z,14.88
2023-01-17T07:09:48.041Z,13.27
2023-01-17T07:11:51.904Z,14.35
2023-01-17T07:13:54.286Z,16.65
2023-01-17T07:15:56.294Z,14.67
2023-01-17T07:18:00.608Z,13.00
2023-01-17T07:20:02.461Z,13.13
2023-01-17T07:22:04.607Z,12.75
2023-01-17T07:24:06.898Z,13.35
2023-01-17T07:26:09.150Z,11.75
2023-01-17T07:28:11.019Z,11.63
2023-01-17T07:30:13.338Z,12.27
2023-01-17T07:32:15.159Z,13.02
2023-01-17T07:34:17.259Z,11.90
2023-01-17T07:36:18.999Z,11.02
2023-01-17T07:38:21.125Z,11.23
2023-01-17T07:40:22.896Z,10.13
2023-01-17T07:42:25.009Z,10.50
2023-01-17T07:44:27.160Z,10.77
2023-01-17T07:46:30.619Z,11.20
2023-01-17T07:48:32.493Z,17.75
2023-01-17T07:50:34.643Z,14.13
2023-01-17T07:52:36.697Z,14.37
2023-01-17T07:54:39.941Z,10.98
2023-01-17T07:56:45.593Z,16.80
2023-01-17T07:58:48.584Z,14.27
2023-01-17T08:00:50.423Z,10.70
2023-01-17T08:02:55.579Z,10.60
2023-01-17T08:04:57.265Z,9.88
2023-01-17T08:07:00.537Z,10.17
2023-01-17T08:09:02.284Z,10.68
2023-01-17T08:11:04.417Z,11.97
2023-01-17T08:13:06.095Z,10.13
2023-01-17T08:15:09.352Z,9.50
2023-01-17T08:19:13.213Z,9.73
2023-01-17T08:21:15.352Z,9.55
2023-01-17T08:23:17.539Z,10.55
2023-01-17T08:25:19.577Z,8.77
2023-01-17T08:27:23.047Z,9.55
2023-01-17T08:29:24.926Z,9.75
2023-01-17T08:31:27.974Z,9.68
2023-01-17T08:33:29.712Z,9.77
2023-01-17T08:35:31.785Z,9.63
2023-01-17T08:37:33.527Z,9.55
2023-01-17T08:39:35.640Z,9.87
2023-01-17T08:41:37.336Z,10.43
2023-01-17T08:43:39.424Z,9.95
2023-01-17T08:45:44.087Z,10.63
2023-01-17T08:47:46.168Z,9.95
2023-01-17T08:49:48.283Z,10.13
2023-01-17T08:51:52.318Z,9.82
2023-01-17T08:53:54.699Z,10.80
2023-01-17T08:56:00.523Z,10.63
2023-01-17T08:58:02.255Z,10.77
2023-01-17T09:00:04.425Z,12.20
2023-01-17T09:02:15.064Z,11.23
2023-01-17T09:04:17.227Z,10.15
2023-01-17T09:06:19.060Z,10.38
2023-01-17T09:08:21.183Z,10.98
2023-01-17T09:10:23.713Z,10.52
2023-01-17T09:12:26.040Z,12.35
2023-01-17T09:14:27.815Z,9.85
2023-01-17T09:16:29.958Z,9.93
2023-01-17T09:18:32.317Z,14.48
2023-01-17T09:20:34.534Z,10.70
2023-01-17T09:22:37.791Z,11.30
2023-01-17T09:24:40.020Z,9.82
2023-01-17T09:26:41.763Z,10.15
2023-01-17T09:28:43.869Z,9.63
2023-01-17T09:30:45.616Z,10.02
2023-01-17T09:32:54.537Z,9.43
2023-01-17T09:35:00.972Z,10.80
2023-01-17T09:37:03.184Z,10.43
2023-01-17T09:39:05.138Z,10.32
2023-01-17T09:41:27.950Z,9.68
2023-01-17T09:43:51.120Z,10.27
2023-01-17T09:45:53.399Z,9.80
2023-01-17T09:47:55.385Z,9.70
2023-01-17T09:50:00.914Z,10.13
2023-01-17T09:52:03.306Z,10.65
2023-01-17T09:54:05.834Z,9.20
2023-01-17T09:56:11.775Z,11.23
2023-01-17T09:58:19.551Z,14.57
2023-01-17T10:00:36.833Z,12.85
2023-01-17T10:02:44.659Z,12.57
2023-01-17T10:04:55.659Z,12.32
2023-01-17T10:07:15.704Z,10.75
2023-01-17T10:09:20.511Z,14.73
2023-01-17T10:11:25.346Z,13.13
2023-01-17T10:13:27.052Z,12.73
2023-01-17T10:15:32.293Z,11.02
2023-01-17T10:17:36.393Z,10.70
2023-01-17T10:19:49.069Z,10.48
2023-01-17T10:21:59.150Z,11.23
2023-01-17T10:24:19.651Z,10.02
2023-01-17T10:26:25.481Z,10.25
2023-01-17T10:28:27.138Z,10.77
2023-01-17T10:30:29.180Z,9.68
2023-01-17T10:32:33.507Z,10.25
2023-01-17T10:34:46.272Z,10.95
2023-01-17T10:36:54.401Z,10.60
2023-01-17T10:39:14.630Z,10.65
2023-01-17T10:41:16.312Z,10.18
2023-01-17T10:43:18.300Z,10.83
2023-01-17T10:45:28.404Z,11.32
2023-01-17T10:47:33.267Z,12.52
2023-01-17T10:49:37.150Z,11.30
2023-01-17T10:52:00.044Z,12.57
2023-01-17T10:54:12.433Z,10.20
2023-01-17T10:56:15.694Z,10.68
2023-01-17T11:00:40.165Z,11.25
2023-01-17T11:02:44.321Z,10.98
2023-01-17T11:04:49.146Z,10.25
2023-01-17T11:07:10.192Z,11.32
2023-01-17T11:09:12.264Z,10.52
2023-01-17T11:11:13.991Z,10.50
2023-01-17T11:13:36.963Z,11.10
2023-01-17T11:15:39.896Z,10.77
2023-01-17T11:17:46.265Z,9.85
2023-01-17T11:19:51.296Z,11.30
2023-01-17T11:21:54.884Z,11.75
2023-01-17T11:23:57.321Z,11.30
2023-01-17T11:26:03.203Z,14.68
2023-01-17T11:28:18.081Z,11.20
2023-01-17T11:30:20.988Z,10.73
2023-01-17T11:32:22.717Z,12.48
2023-01-17T11:34:26.042Z,11.13
2023-01-17T11:36:28.575Z,10.93
2023-01-17T11:38:30.714Z,10.35
2023-01-17T11:40:41.507Z,11.43
2023-01-17T11:42:43.653Z,12.80
2023-01-17T11:44:45.418Z,12.38
2023-01-17T11:46:47.703Z,12.67
2023-01-17T11:48:50.989Z,13.13
2023-01-17T11:50:56.150Z,12.10
2023-01-17T11:53:14.185Z,13.13
2023-01-17T11:55:16.166Z,12.20
2023-01-17T11:57:21.341Z,13.88
2023-01-17T11:59:31.553Z,12.70
2023-01-17T12:01:55.809Z,12.15
2023-01-17T12:04:08.310Z,12.75
2023-01-17T12:06:15.049Z,11.20
2023-01-17T12:08:16.723Z,12.95
2023-01-17T12:10:24.620Z,17.55
2023-01-17T12:12:45.177Z,13.15
2023-01-17T12:15:08.027Z,13.25
2023-01-17T12:17:16.752Z,13.45
2023-01-17T12:19:33.744Z,12.82
2023-01-17T12:22:00.289Z,13.00
2023-01-17T12:24:26.260Z,14.52
2023-01-17T12:26:42.036Z,13.88
2023-01-17T12:29:07.118Z,13.18
2023-01-17T12:31:09.192Z,13.70
2023-01-17T12:33:25.799Z,13.95
2023-01-17T12:35:32.019Z,16.08
2023-01-17T12:37:39.024Z,17.00
2023-01-17T12:39:43.302Z,16.98
2023-01-17T12:41:50.930Z,14.77
2023-01-17T12:43:58.081Z,14.35
2023-01-17T12:46:03.719Z,17.15
2023-01-17T12:48:10.292Z,15.40
2023-01-17T12:50:21.360Z,16.77
2023-01-17T12:52:35.665Z,15.20
2023-01-17T12:54:42.614Z,13.75
2023-01-17T12:56:50.402Z,17.55
2023-01-17T12:58:59.397Z,14.38
2023-01-17T13:01:04.565Z,14.73
2023-01-17T13:03:18.087Z,13.75
2023-01-17T13:05:30.992Z,14.77
2023-01-17T13:07:53.775Z,15.15
2023-01-17T13:10:00.251Z,14.50
2023-01-17T13:12:07.786Z,14.48
2023-01-17T13:14:10.253Z,16.67
2023-01-17T13:16:21.600Z,15.68
2023-01-17T13:18:29.684Z,15.38
2023-01-17T13:20:45.115Z,14.85
2023-01-17T13:22:47.295Z,14.80
2023-01-17T13:25:01.659Z,14.40
2023-01-17T13:27:18.588Z,15.45
2023-01-17T13:29:26.996Z,15.35
2023-01-17T13:31:55.210Z,15.50
2023-01-17T13:34:23.600Z,14.93
2023-01-17T13:36:34.747Z,14.27
2023-01-17T13:38:55.132Z,13.52
2023-01-17T13:40:58.685Z,14.27
2023-01-17T13:43:01.775Z,15.27
2023-01-17T13:45:08.531Z,13.50
2023-01-17T13:47:10.555Z,15.98
2023-01-17T13:49:37.193Z,15.98
2023-01-17T13:51:57.867Z,14.30
2023-01-17T13:53:59.675Z,16.15
2023-01-17T13:56:12.974Z,15.63
2023-01-17T13:58:27.428Z,16.27
2023-01-17T14:00:29.122Z,15.43
2023-01-17T14:02:34.044Z,16.25
2023-01-17T14:04:55.342Z,17.05
2023-01-17T14:06:59.488Z,16.60
2023-01-17T14:09:03.219Z,16.25
2023-01-17T14:11:07.461Z,15.75
2023-01-17T14:13:29.515Z,17.63
2023-01-17T14:15:33.527Z,16.67
2023-01-17T14:17:37.351Z,18.92
2023-01-17T14:19:39.461Z,20.02
2023-01-17T14:21:41.230Z,22.10
2023-01-17T14:23:48.543Z,18.83
2023-01-17T14:25:50.883Z,16.75
2023-01-17T14:27:54.847Z,17.65
2023-01-17T14:29:59.075Z,17.02
2023-01-17T14:32:02.088Z,17.90
2023-01-17T14:34:22.811Z,15.38
2023-01-17T14:36:29.613Z,15.90
2023-01-17T14:38:32.990Z,17.27
2023-01-17T14:42:37.116Z,16.73
2023-01-17T14:44:38.808Z,18.05
2023-01-17T14:46:46.586Z,16.08
2023-01-17T14:48:48.322Z,17.10
2023-01-17T14:50:51.195Z,15.93
2023-01-17T14:53:11.098Z,16.85
2023-01-17T14:55:17.470Z,17.30
2023-01-17T14:57:28.191Z,17.20
2023-01-17T14:59:30.400Z,18.13
2023-01-17T15:01:32.806Z,18.27
2023-01-17T15:03:55.361Z,20.23
2023-01-17T15:05:57.626Z,22.27
2023-01-17T15:07:59.764Z,19.50
2023-01-17T15:10:03.878Z,17.65
2023-01-17T15:12:08.563Z,19.27
2023-01-17T15:14:17.367Z,17.30
2023-01-17T15:16:21.257Z,18.13
2023-01-17T15:18:26.956Z,17.88
2023-01-17T15:20:29.095Z,20.73
2023-01-17T15:22:30.898Z,24.13
2023-01-17T15:24:38.515Z,22.30
2023-01-17T15:26:42.479Z,21.23
2023-01-17T15:28:45.147Z,19.02
2023-01-17T15:31:02.124Z,19.20
2023-01-17T15:33:04.204Z,21.98
2023-01-17T15:35:07.988Z,20.25
2023-01-17T15:37:24.657Z,21.08
2023-01-17T15:39:37.700Z,21.13
2023-01-17T15:41:40.653Z,21.45
2023-01-17T15:43:43.607Z,19.80
2023-01-17T15:45:55.585Z,20.65
2023-01-17T15:47:59.245Z,19.40
2023-01-17T15:50:18.721Z,19.90
2023-01-17T15:52:21.870Z,18.95
2023-01-17T15:54:25.596Z,19.08
2023-01-17T15:56:33.685Z,19.58
2023-01-17T15:58:35.959Z,19.73
2023-01-17T16:00:39.141Z,19.67
2023-01-17T16:02:43.399Z,19.95
2023-01-17T16:04:45.914Z,19.13
2023-01-17T16:06:47.632Z,19.77
2023-01-17T16:08:52.986Z,20.17
2023-01-17T16:10:56.753Z,20.52
2023-01-17T16:12:59.262Z,21.50
2023-01-17T16:15:15.430Z,21.60
2023-01-17T16:17:18.963Z,20.67
2023-01-17T16:19:21.722Z,20.90
2023-01-17T16:21:28.378Z,21.13
2023-01-17T16:23:30.078Z,21.63
2023-01-17T16:25:35.152Z,20.43
2023-01-17T16:27:37.111Z,20.70
2023-01-17T16:29:39.114Z,25.48
2023-01-17T16:31:40.941Z,23.30
2023-01-17T16:33:43.013Z,21.13
2023-01-17T16:35:44.675Z,20.88
2023-01-17T16:37:51.356Z,21.63
2023-01-17T16:39:53.293Z,21.85
2023-01-17T16:42:04.276Z,21.87
2023-01-17T16:44:06.294Z,22.05
2023-01-17T16:46:10.006Z,21.70
2023-01-17T16:48:12.611Z,24.20
2023-01-17T16:50:17.074Z,23.13
2023-01-17T16:52:18.795Z,21.52
2023-01-17T16:54:20.896Z,21.90
2023-01-17T16:56:22.710Z,22.85
2023-01-17T16:58:25.112Z,23.88
2023-01-17T17:00:26.987Z,24.90
2023-01-17T17:02:29.093Z,23.48
2023-01-17T17:04:30.806Z,23.42
2023-01-17T17:06:33.041Z,22.67
2023-01-17T17:08:35.928Z,23.92
2023-01-17T17:10:38.024Z,24.67
2023-01-17T17:12:39.922Z,24.38
2023-01-17T17:14:41.960Z,27.10
2023-01-17T17:16:44.787Z,25.75
2023-01-17T17:18:47.780Z,33.75
2023-01-17T17:20:49.577Z,31.73
2023-01-17T17:22:51.751Z,31.98
2023-01-17T17:24:53.421Z,30.10
2023-01-17T17:26:55.525Z,28.13
2023-01-17T17:28:57.734Z,33.10
2023-01-17T17:31:11.069Z,32.30
2023-01-17T17:33:12.790Z,28.45
2023-01-17T17:35:14.856Z,24.23
2023-01-17T17:37:16.936Z,25.35
2023-01-17T17:39:18.943Z,24.83
2023-01-17T17:41:22.296Z,24.00
2023-01-17T17:43:26.482Z,25.85
2023-01-17T17:45:28.265Z,24.33
2023-01-17T17:47:30.647Z,23.83
2023-01-17T17:49:32.328Z,24.70
2023-01-17T17:51:35.410Z,25.40
2023-01-17T17:53:37.109Z,24.85
2023-01-17T17:55:40.997Z,23.93
2023-01-17T17:57:42.785Z,23.63
2023-01-17T17:59:44.842Z,22.92
2023-01-17T18:01:47.185Z,23.80
2023-01-17T18:03:49.472Z,22.98
2023-01-17T18:05:51.485Z,22.95
2023-01-17T18:07:53.864Z,23.52
2023-01-17T18:09:55.659Z,23.02
2023-01-17T18:11:58.097Z,24.20
2023-01-17T18:14:00.918Z,23.13
2023-01-17T18:16:13.585Z,22.52
2023-01-17T18:18:15.973Z,23.00
2023-01-17T18:20:18.008Z,22.70
2023-01-17T18:22:19.705Z,21.70
2023-01-17T18:24:22.832Z,23.10
2023-01-17T18:26:25.972Z,23.20
2023-01-17T18:28:27.630Z,22.60
2023-01-17T18:30:35.147Z,23.53
2023-01-17T18:32:38.903Z,23.83
2023-01-17T18:34:42.362Z,22.63
2023-01-17T18:36:44.243Z,22.50
2023-01-17T18:38:47.426Z,21.92
2023-01-17T18:40:49.082Z,22.25
2023-01-17T18:42:51.090Z,22.08
2023-01-17T18:44:52.795Z,24.10
2023-01-17T18:46:54.844Z,22.37
2023-01-17T18:48:57.274Z,23.30
2023-01-17T18:51:00.145Z,22.67
2023-01-17T18:53:02.210Z,23.17
2023-01-17T18:55:04.071Z,22.10
2023-01-17T18:57:06.124Z,22.08
2023-01-17T18:59:09.646Z,22.00
2023-01-17T19:01:25.623Z,22.40
2023-01-17T19:03:31.621Z,22.15
2023-01-17T19:05:35.686Z,22.70
2023-01-17T19:07:37.372Z,22.05
2023-01-17T19:09:39.460Z,24.30
2023-01-17T19:11:43.158Z,22.45
2023-01-17T19:13:45.222Z,22.63
2023-01-17T19:15:46.949Z,25.17
2023-01-17T19:17:48.976Z,24.93
2023-01-17T19:19:50.692Z,24.60
2023-01-17T19:21:52.930Z,23.70
2023-01-17T19:23:55.614Z,24.42
2023-01-17T19:25:57.336Z,24.70
2023-01-17T19:27:59.661Z,22.95
2023-01-17T19:30:02.034Z,24.20
2023-01-17T19:32:04.107Z,24.17
2023-01-17T19:34:05.812Z,23.33
2023-01-17T19:36:13.531Z,23.33
2023-01-17T19:38:15.241Z,24.92
2023-01-17T19:40:18.488Z,24.27
2023-01-17T19:44:22.512Z,25.10
2023-01-17T19:46:26.303Z,25.70
2023-01-17T19:48:28.007Z,25.73
2023-01-17T19:50:30.050Z,25.33
2023-01-17T19:52:31.835Z,30.20
2023-01-17T19:54:33.888Z,26.40
2023-01-17T19:56:35.673Z,26.13
2023-01-17T19:58:38.180Z,27.02
2023-01-17T20:00:46.441Z,26.85
2023-01-17T20:02:48.976Z,29.00
2023-01-17T20:04:50.749Z,28.92
2023-01-17T20:06:53.158Z,27.67
2023-01-17T20:08:54.840Z,27.87
2023-01-17T20:11:00.960Z,28.80
2023-01-17T20:13:04.725Z,28.90
2023-01-17T20:15:07.116Z,28.30
2023-01-17T20:17:08.794Z,30.58
2023-01-17T20:19:10.868Z,29.13
2023-01-17T20:21:19.611Z,31.02
2023-01-17T20:23:21.709Z,30.20
2023-01-17T20:25:23.630Z,31.25
2023-01-17T20:27:26.656Z,30.33
2023-01-17T20:29:28.480Z,31.63
2023-01-17T20:31:32.224Z,30.38
2023-01-17T20:33:35.215Z,31.30
2023-01-17T20:37:39.437Z,36.83
2023-01-17T20:39:41.263Z,34.35
2023-01-17T20:41:45.587Z,33.55
2023-01-17T20:43:48.217Z,32.20
2023-01-17T20:45:56.107Z,35.95
2023-01-17T20:47:58.565Z,38.42
2023-01-17T20:50:03.185Z,41.47
2023-01-17T20:52:06.294Z,39.97
2023-01-17T20:54:12.993Z,39.78
2023-01-17T20:56:15.525Z,39.28
2023-01-17T20:58:17.194Z,37.30
2023-01-17T21:00:19.520Z,37.10
2023-01-17T21:02:21.273Z,37.45
2023-01-17T21:04:25.711Z,37.35
2023-01-17T21:06:27.676Z,37.72
2023-01-17T21:08:30.023Z,37.83
2023-01-17T21:10:32.067Z,37.22
2023-01-17T21:12:34.091Z,38.20
2023-01-17T21:14:37.672Z,39.50
2023-01-17T21:16:39.725Z,36.45
2023-01-17T21:18:42.563Z,37.22
2023-01-17T21:20:44.375Z,37.50
2023-01-17T21:22:47.128Z,38.10
2023-01-17T21:24:49.215Z,37.70
2023-01-17T21:26:52.494Z,35.92
2023-01-17T21:28:54.316Z,37.38
2023-01-17T21:30:56.910Z,38.08
2023-01-17T21:32:58.819Z,37.58
2023-01-17T21:35:01.424Z,36.92
2023-01-17T21:37:03.307Z,39.73
2023-01-17T21:39:11.584Z,39.10
2023-01-17T21:41:14.583Z,37.47
2023-01-17T21:45:18.364Z,35.35
2023-01-17T21:47:20.036Z,35.63
2023-01-17T21:49:22.191Z,35.63
2023-01-17T21:51:24.354Z,36.53
2023-01-17T21:53:27.708Z,36.58
2023-01-17T21:55:48.694Z,39.33
2023-01-17T21:58:09.075Z,37.17
2023-01-17T22:00:15.694Z,37.00
2023-01-17T22:02:17.475Z,35.75
2023-01-17T22:04:20.212Z,34.97
2023-01-17T22:06:22.711Z,34.22
2023-01-17T22:08:24.953Z,35.55
2023-01-17T22:10:26.756Z,36.35
2023-01-17T22:12:29.069Z,33.88
2023-01-17T22:14:30.830Z,37.08
2023-01-17T22:16:33.011Z,36.13
2023-01-17T22:18:39.111Z,36.25
2023-01-17T22:20:41.651Z,35.80
2023-01-17T22:22:43.331Z,35.50
2023-01-17T22:24:45.350Z,35.72
2023-01-17T22:26:47.091Z,35.63
2023-01-17T22:28:49.123Z,36.53
2023-01-17T22:30:50.824Z,37.05
2023-01-17T22:32:52.885Z,36.20
2023-01-17T22:34:54.540Z,36.15
2023-01-17T22:36:56.556Z,37.57
2023-01-17T22:38:58.265Z,36.42
2023-01-17T22:41:08.098Z,35.60
2023-01-17T22:43:10.103Z,36.20
2023-01-17T22:45:12.326Z,37.35
2023-01-17T22:47:14.108Z,38.88
2023-01-17T22:49:16.921Z,37.95
2023-01-17T22:51:19.444Z,36.88
2023-01-17T22:53:21.540Z,40.67
2023-01-17T22:55:23.209Z,40.17
2023-01-17T22:57:25.262Z,39.80
2023-01-17T22:59:27.043Z,40.50
2023-01-17T23:01:30.725Z,41.50
2023-01-17T23:03:33.173Z,40.47
2023-01-17T23:05:34.934Z,39.45
2023-01-17T23:07:43.573Z,41.60
2023-01-17T23:09:45.276Z,42.10
2023-01-17T23:11:50.884Z,41.67
2023-01-17T23:13:52.993Z,43.40
2023-01-17T23:16:13.428Z,42.25
2023-01-17T23:18:34.414Z,40.85
2023-01-17T23:20:36.350Z,43.20
2023-01-17T23:22:38.543Z,42.70
2023-01-17T23:24:43.291Z,41.50
2023-01-17T23:27:04.981Z,43.55
2023-01-17T23:29:06.996Z,43.33
2023-01-17T23:31:10.993Z,43.22
2023-01-17T23:33:14.543Z,43.58
2023-01-17T23:35:16.837Z,42.78
2023-01-17T23:37:18.771Z,45.92
2023-01-17T23:39:20.786Z,44.90
2023-01-17T23:41:54.780Z,44.47
2023-01-17T23:43:57.606Z,45.47
2023-01-17T23:45:59.494Z,45.10
2023-01-17T23:48:01.894Z,42.85
2023-01-17T23:52:06.129Z,44.08
2023-01-17T23:54:09.044Z,45.53
2023-01-17T23:56:10.773Z,47.50
2023-01-17T23:58:12.860Z,47.20
